Time;durP1;ratioP1;P1;durP2;ratioP2;P2;SDS_P1;SDS_P2;PMS_P1;PMS_P2;Temp;Humidity;BMP_temperature;BMP_pressure;BME280_temperature;BME280_humidity;BME280_pressure;Samples;Min_cycle;Max_cycle;Signal;HPM_P1;HPM_P2
2023/10/23 00:00:42;;;;;;;4.30;3.07;;;;;;;11.26;100.00;100317.20;1457229;89;22279;-86
2023/10/23 00:03:09;;;;;;;4.30;3.17;;;;;;;11.25;100.00;100318.20;1446794;89;21495;-85
2023/10/23 00:05:35;;;;;;;4.73;3.30;;;;;;;11.22;100.00;100318.52;1447711;90;21340;-88
2023/10/23 00:08:01;;;;;;;5.50;3.27;;;;;;;11.17;100.00;100316.81;1447781;90;21428;-86
2023/10/23 00:10:28;;;;;;;7.23;5.00;;;;;;;11.09;100.00;100314.09;1447171;90;21518;-83
2023/10/23 00:12:55;;;;;;;4.83;3.10;;;;;;;11.02;100.00;100309.09;1455284;90;21443;-84
2023/10/23 00:15:21;;;;;;;5.10;3.23;;;;;;;11.00;100.00;100315.02;1434106;90;21421;-85
2023/10/23 00:17:47;;;;;;;4.47;3.30;;;;;;;10.96;100.00;100314.50;1453602;89;21354;-86
2023/10/23 00:20:13;;;;;;;4.60;4.07;;;;;;;10.95;100.00;100321.27;1444671;90;21392;-83
2023/10/23 00:22:39;;;;;;;6.07;3.53;;;;;;;10.93;100.00;100324.55;1460652;89;21585;-87
2023/10/23 00:25:06;;;;;;;4.40;3.03;;;;;;;10.88;100.00;100322.88;1452710;89;22301;-88
2023/10/23 00:27:32;;;;;;;6.57;3.33;;;;;;;10.84;100.00;100314.38;1458447;90;21651;-86
2023/10/23 00:30:00;;;;;;;5.43;3.33;;;;;;;10.82;100.00;100316.36;1447031;90;21542;-86
2023/10/23 00:32:26;;;;;;;5.33;3.30;;;;;;;10.80;100.00;100308.56;1453704;90;22711;-86
2023/10/23 00:34:52;;;;;;;4.57;2.43;;;;;;;10.83;100.00;100311.39;1451909;90;21656;-87
2023/10/23 00:37:18;;;;;;;4.47;3.03;;;;;;;10.87;100.00;100320.69;1448275;90;21317;-86
2023/10/23 00:39:45;;;;;;;5.63;3.00;;;;;;;10.90;100.00;100318.23;1444919;90;21332;-85
2023/10/23 00:42:11;;;;;;;3.97;2.40;;;;;;;10.91;100.00;100315.95;1458060;89;21539;-85
2023/10/23 00:44:37;;;;;;;4.23;2.90;;;;;;;10.92;100.00;100321.06;1462752;89;21326;-86
2023/10/23 00:47:04;;;;;;;5.60;2.90;;;;;;;10.93;100.00;100319.25;1456401;89;21642;-89
2023/10/23 00:49:31;;;;;;;3.20;2.77;;;;;;;10.92;100.00;100321.56;1446405;90;22345;-86
2023/10/23 00:51:57;;;;;;;3.83;3.33;;;;;;;10.87;100.00;100322.51;1444232;89;21444;-87
2023/10/23 00:54:24;;;;;;;4.53;2.70;;;;;;;10.81;100.00;100324.77;1452880;89;21391;-86
2023/10/23 00:56:51;;;;;;;9.07;3.93;;;;;;;10.80;100.00;100329.73;1450801;90;21510;-86
2023/10/23 00:59:17;;;;;;;6.23;4.20;;;;;;;10.80;100.00;100335.03;1448304;90;21495;-86
2023/10/23 01:01:47;;;;;;;13.47;5.23;;;;;;;10.79;100.00;100334.70;1447629;89;21384;-83
2023/10/23 01:04:13;;;;;;;12.70;6.87;;;;;;;10.78;100.00;100329.05;1453899;89;22516;-85
2023/10/23 01:06:39;;;;;;;13.27;6.67;;;;;;;10.80;100.00;100339.50;1452302;90;21399;-89
2023/10/23 01:09:06;;;;;;;12.43;7.23;;;;;;;10.79;100.00;100340.00;1446883;89;21489;-84
2023/10/23 01:11:32;;;;;;;13.83;8.73;;;;;;;10.77;100.00;100337.98;1459652;89;21629;-86
2023/10/23 01:13:59;;;;;;;17.63;8.33;;;;;;;10.72;100.00;100333.62;1452159;90;21517;-86
2023/10/23 01:16:25;;;;;;;9.43;5.33;;;;;;;10.72;100.00;100341.56;1451012;90;21370;-85
2023/10/23 01:18:51;;;;;;;8.33;4.23;;;;;;;10.73;100.00;100343.72;1449695;90;22286;-85
2023/10/23 01:21:17;;;;;;;7.70;4.03;;;;;;;10.74;100.00;100344.91;1454922;89;21484;-86
2023/10/23 01:23:47;;;;;;;7.07;4.97;;;;;;;10.72;100.00;100344.22;1451194;89;21445;-86
2023/10/23 01:26:13;;;;;;;8.87;4.43;;;;;;;10.72;100.00;100353.48;1452831;90;22419;-86
2023/10/23 01:28:39;;;;;;;6.10;4.37;;;;;;;10.72;100.00;100357.45;1448001;90;21435;-84
2023/10/23 01:31:06;;;;;;;9.90;6.00;;;;;;;10.71;100.00;100360.27;1461396;89;21406;-86
2023/10/23 01:33:32;;;;;;;15.00;8.90;;;;;;;10.69;100.00;100364.38;1459411;90;21362;-87
2023/10/23 01:35:58;;;;;;;8.17;5.93;;;;;;;10.67;100.00;100369.47;1439773;90;21553;-86
2023/10/23 01:38:24;;;;;;;7.07;4.37;;;;;;;10.63;100.00;100375.56;1449605;90;21376;-87
2023/10/23 01:40:50;;;;;;;6.37;4.37;;;;;;;10.61;100.00;100374.86;1454748;89;21461;-86
2023/10/23 01:43:16;;;;;;;6.17;3.73;;;;;;;10.54;100.00;100369.84;1451231;89;22220;-86
2023/10/23 01:45:42;;;;;;;7.60;4.63;;;;;;;10.46;100.00;100379.00;1451633;90;21391;-86
2023/10/23 01:48:09;;;;;;;9.40;3.67;;;;;;;10.38;100.00;100378.41;1446321;90;21324;-85
2023/10/23 01:50:36;;;;;;;4.83;3.70;;;;;;;10.30;100.00;100368.59;1447682;89;22449;-86
2023/10/23 01:53:03;;;;;;;4.87;3.90;;;;;;;10.23;100.00;100365.31;1453142;90;21355;-85
2023/10/23 01:55:29;;;;;;;5.03;3.67;;;;;;;10.17;100.00;100372.02;1453382;90;21355;-85
2023/10/23 01:57:58;;;;;;;8.33;4.50;;;;;;;10.15;100.00;100378.76;1451936;89;21587;-86
2023/10/23 02:00:25;;;;;;;6.53;4.67;;;;;;;10.12;100.00;100384.34;1460626;90;22648;-83
2023/10/23 02:02:52;;;;;;;5.20;4.23;;;;;;;10.10;100.00;100381.53;1449275;90;21392;-89
2023/10/23 02:05:18;;;;;;;5.47;3.43;;;;;;;10.07;100.00;100377.83;1453708;90;21376;-87
2023/10/23 02:07:44;;;;;;;5.20;3.73;;;;;;;10.03;100.00;100377.78;1454274;90;21391;-85
2023/10/23 02:10:10;;;;;;;4.60;3.70;;;;;;;9.99;100.00;100381.71;1444444;90;21842;-85
2023/10/23 02:12:37;;;;;;;5.13;3.90;;;;;;;9.95;100.00;100374.53;1446939;90;21391;-85
2023/10/23 02:15:04;;;;;;;3.87;3.47;;;;;;;9.92;100.00;100372.18;1450343;90;22361;-87
2023/10/23 02:17:30;;;;;;;3.83;3.37;;;;;;;9.88;100.00;100382.22;1448579;90;22227;-89
2023/10/23 02:19:57;;;;;;;5.67;3.57;;;;;;;9.83;100.00;100379.17;1444719;90;21289;-87
2023/10/23 02:22:23;;;;;;;4.87;3.80;;;;;;;9.77;100.00;100385.03;1454177;89;21311;-83
2023/10/23 02:24:49;;;;;;;5.43;3.67;;;;;;;9.71;100.00;100385.61;1442979;90;21376;-84
2023/10/23 02:27:15;;;;;;;5.23;3.13;;;;;;;9.66;100.00;100389.16;1442288;90;21472;-91
2023/10/23 02:29:41;;;;;;;4.80;3.33;;;;;;;9.64;100.00;100384.53;1454273;90;21391;-90
2023/10/23 02:32:08;;;;;;;6.23;3.00;;;;;;;9.63;100.00;100389.45;1450041;90;22308;-88
2023/10/23 02:34:36;;;;;;;3.80;2.97;;;;;;;9.58;100.00;100387.25;1452236;90;21994;-83
2023/10/23 02:37:03;;;;;;;6.87;3.20;;;;;;;9.54;100.00;100387.66;1459536;89;21362;-82
2023/10/23 02:39:29;;;;;;;5.90;3.37;;;;;;;9.45;100.00;100386.21;1448054;89;21398;-84
2023/10/23 02:41:55;;;;;;;6.03;3.90;;;;;;;9.39;100.00;100385.45;1455594;89;21399;-85
2023/10/23 02:44:22;;;;;;;5.67;4.23;;;;;;;9.36;100.00;100383.59;1452665;89;21495;-84
2023/10/23 02:46:48;;;;;;;4.03;3.20;;;;;;;9.32;100.00;100383.05;1450405;89;21354;-84
2023/10/23 02:49:14;;;;;;;4.97;3.20;;;;;;;9.30;100.00;100383.66;1455384;89;22531;-86
2023/10/23 02:51:41;;;;;;;4.57;3.33;;;;;;;9.26;100.00;100387.08;1459371;89;22308;-85
2023/10/23 02:54:07;;;;;;;6.93;3.47;;;;;;;9.22;100.00;100392.28;1443969;90;21453;-87
2023/10/23 02:56:33;;;;;;;4.07;3.20;;;;;;;9.19;100.00;100395.69;1458989;90;21391;-86
2023/10/23 02:58:59;;;;;;;6.23;3.60;;;;;;;9.16;100.00;100398.61;1458440;89;21362;-86
2023/10/23 03:01:25;;;;;;;4.90;3.13;;;;;;;9.16;100.00;100404.72;1447980;89;21375;-83
2023/10/23 03:03:52;;;;;;;8.57;4.10;;;;;;;9.15;100.00;100410.98;1451957;90;22352;-86
2023/10/23 03:06:18;;;;;;;4.07;3.47;;;;;;;9.14;100.00;100415.07;1448397;90;21869;-86
2023/10/23 03:08:44;;;;;;;5.83;3.90;;;;;;;9.12;100.00;100413.91;1456631;89;21701;-87
2023/10/23 03:11:11;;;;;;;4.10;3.70;;;;;;;9.09;100.00;100415.97;1447114;89;21354;-87
2023/10/23 03:13:37;;;;;;;11.87;4.00;;;;;;;9.00;100.00;100414.50;1452904;89;21576;-87
2023/10/23 03:16:04;;;;;;;5.27;3.67;;;;;;;8.93;100.00;100408.11;1448421;89;21428;-90
2023/10/23 03:18:30;;;;;;;5.03;4.33;;;;;;;8.87;100.00;100417.91;1455670;89;22508;-88
2023/10/23 03:21:00;;;;;;;4.97;4.10;;;;;;;8.87;100.00;100421.86;1443141;90;21458;-89
2023/10/23 03:23:29;;;;;;;5.07;3.90;;;;;;;8.88;100.00;100424.84;1454313;90;21549;-86
2023/10/23 03:25:56;;;;;;;10.10;3.10;;;;;;;8.90;100.00;100430.83;1453110;89;21362;-88
2023/10/23 03:28:22;;;;;;;4.30;3.13;;;;;;;8.91;100.00;100419.28;1453093;89;21555;-88
2023/10/23 03:30:48;;;;;;;5.67;3.50;;;;;;;8.94;100.00;100430.05;1451603;89;21399;-89
2023/10/23 03:33:15;;;;;;;7.00;3.50;;;;;;;8.95;100.00;100432.58;1452221;90;21605;-85
2023/10/23 03:35:43;;;;;;;5.73;3.40;;;;;;;8.99;100.00;100437.92;1448782;89;21465;-86
2023/10/23 03:38:09;;;;;;;5.03;3.33;;;;;;;8.98;100.00;100437.58;1457602;89;21518;-87
2023/10/23 03:40:35;;;;;;;4.80;3.43;;;;;;;9.00;100.00;100440.06;1461469;89;21332;-87
2023/10/23 03:43:02;;;;;;;3.77;3.00;;;;;;;9.01;100.00;100445.22;1447703;90;21362;-88
2023/10/23 03:45:28;;;;;;;5.13;3.57;;;;;;;9.03;100.00;100449.03;1454534;90;21847;-87
2023/10/23 03:47:54;;;;;;;4.07;3.47;;;;;;;9.03;100.00;100451.21;1457751;90;21354;-88
2023/10/23 03:50:20;;;;;;;8.13;3.33;;;;;;;9.06;100.00;100454.03;1458701;89;22427;-88
2023/10/23 03:52:46;;;;;;;3.87;2.60;;;;;;;9.10;100.00;100443.56;1458310;90;21318;-84
2023/10/23 03:55:13;;;;;;;3.47;2.87;;;;;;;9.13;100.00;100449.89;1449724;90;21550;-83
2023/10/23 03:57:39;;;;;;;4.00;3.00;;;;;;;9.16;100.00;100448.78;1455275;90;21361;-83
2023/10/23 04:00:10;;;;;;;6.73;3.87;;;;;;;9.17;100.00;100457.04;1450634;90;21406;-85
2023/10/23 04:02:35;;;;;;;4.97;3.77;;;;;;;9.13;100.00;100458.30;1438312;90;21443;-85
2023/10/23 04:05:01;;;;;;;4.13;3.50;;;;;;;9.10;100.00;100458.09;1452732;90;21339;-84
2023/10/23 04:07:27;;;;;;;3.77;2.83;;;;;;;9.06;100.00;100457.99;1449935;90;21362;-84
2023/10/23 04:09:53;;;;;;;6.97;3.70;;;;;;;9.06;100.00;100456.67;1448434;90;21370;-84
2023/10/23 04:12:19;;;;;;;4.97;3.67;;;;;;;9.09;100.00;100452.92;1455989;90;21354;-85
2023/10/23 04:14:46;;;;;;;8.90;3.70;;;;;;;9.07;100.00;100445.16;1457415;89;21340;-84
2023/10/23 04:17:13;;;;;;;6.67;4.87;;;;;;;9.07;100.00;100449.61;1456859;89;21407;-84
2023/10/23 04:19:39;;;;;;;7.97;3.37;;;;;;;9.04;100.00;100451.55;1458929;89;21551;-85
2023/10/23 04:22:05;;;;;;;7.43;3.40;;;;;;;9.00;100.00;100447.49;1454727;89;21363;-84
2023/10/23 04:24:31;;;;;;;5.30;4.00;;;;;;;8.98;100.00;100448.62;1447558;90;21869;-85
2023/10/23 04:26:57;;;;;;;8.20;3.20;;;;;;;8.95;100.00;100443.63;1451617;89;21325;-85
2023/10/23 04:29:23;;;;;;;4.57;3.50;;;;;;;8.92;100.00;100451.33;1446708;90;22271;-84
2023/10/23 04:31:49;;;;;;;8.43;4.00;;;;;;;8.89;100.00;100454.70;1447261;90;21347;-84
2023/10/23 04:34:19;;;;;;;6.97;3.30;;;;;;;8.88;100.00;100447.27;1448663;90;22331;-84
2023/10/23 04:36:45;;;;;;;4.60;4.17;;;;;;;8.87;100.00;100450.89;1459072;90;21473;-85
2023/10/23 04:39:11;;;;;;;6.07;4.50;;;;;;;8.88;100.00;100454.36;1459718;89;22315;-86
2023/10/23 04:41:38;;;;;;;10.70;4.53;;;;;;;8.87;100.00;100456.17;1453464;90;21444;-85
2023/10/23 04:44:04;;;;;;;6.30;4.10;;;;;;;8.87;100.00;100456.66;1455288;90;21525;-84
2023/10/23 04:46:31;;;;;;;13.90;5.87;;;;;;;8.86;100.00;100451.02;1458192;90;22455;-83
2023/10/23 04:48:59;;;;;;;9.23;4.93;;;;;;;8.81;100.00;100450.13;1457644;90;21494;-85
2023/10/23 04:51:25;;;;;;;13.93;7.37;;;;;;;8.73;100.00;100451.28;1445609;89;21391;-83
2023/10/23 04:53:51;;;;;;;29.47;11.73;;;;;;;8.66;100.00;100451.45;1445894;89;21406;-85
2023/10/23 04:56:17;;;;;;;18.20;8.80;;;;;;;8.57;100.00;100452.63;1452719;90;21392;-85
2023/10/23 04:58:43;;;;;;;10.70;5.13;;;;;;;8.55;100.00;100452.41;1449188;89;21631;-85
2023/10/23 05:01:18;;;;;;;18.83;5.90;;;;;;;8.49;100.00;100455.10;1455061;89;22944;-85
2023/10/23 05:03:44;;;;;;;9.90;4.87;;;;;;;8.51;100.00;100454.46;1453696;89;21384;-86
2023/10/23 05:06:10;;;;;;;9.93;4.40;;;;;;;8.52;100.00;100465.88;1461089;89;22373;-86
2023/10/23 05:08:36;;;;;;;7.23;4.73;;;;;;;8.50;100.00;100458.08;1448558;90;21428;-86
2023/10/23 05:11:08;;;;;;;8.57;5.27;;;;;;;8.51;100.00;100462.86;1457603;89;21333;-84
2023/10/23 05:13:34;;;;;;;9.43;5.17;;;;;;;8.53;100.00;100467.53;1455613;89;21583;-85
2023/10/23 05:16:05;;;;;;;10.93;5.10;;;;;;;8.51;100.00;100472.92;1437818;90;21528;-86
2023/10/23 05:18:35;;;;;;;11.73;6.50;;;;;;;8.50;100.00;100487.09;1443572;90;21435;-84
2023/10/23 05:21:11;;;;;;;8.53;4.97;;;;;;;8.52;100.00;100486.48;1444971;90;22265;-83
2023/10/23 05:23:38;;;;;;;14.37;5.43;;;;;;;8.55;100.00;100494.13;1455294;89;21332;-84
2023/10/23 05:26:05;;;;;;;10.37;4.40;;;;;;;8.61;100.00;100501.17;1452804;90;21517;-86
2023/10/23 05:28:31;;;;;;;11.63;6.17;;;;;;;8.68;100.00;100499.66;1451062;89;21281;-82
2023/10/23 05:30:58;;;;;;;15.13;7.53;;;;;;;8.74;100.00;100501.75;1445882;90;22404;-86
2023/10/23 05:33:25;;;;;;;10.60;5.97;;;;;;;8.80;100.00;100507.81;1454357;89;21443;-87
2023/10/23 05:36:04;;;;;;;7.93;5.20;;;;;;;8.85;100.00;100511.37;1453433;90;21414;-85
2023/10/23 05:38:31;;;;;;;11.50;6.80;;;;;;;8.89;100.00;100516.27;1455564;89;21428;-86
2023/10/23 05:40:59;;;;;;;12.17;6.17;;;;;;;8.95;100.00;100514.89;1452398;90;21346;-87
2023/10/23 05:43:26;;;;;;;9.17;4.87;;;;;;;8.98;100.00;100515.45;1450488;90;22131;-85
2023/10/23 05:45:56;;;;;;;11.57;5.20;;;;;;;9.04;100.00;100514.08;1449595;89;21785;-85
2023/10/23 05:48:23;;;;;;;7.67;5.00;;;;;;;9.09;100.00;100514.52;1453718;90;21458;-85
2023/10/23 05:50:59;;;;;;;7.20;4.77;;;;;;;9.14;100.00;100518.87;1447941;89;22221;-85
2023/10/23 05:53:27;;;;;;;6.03;4.73;;;;;;;9.17;100.00;100525.20;1446109;89;21421;-83
2023/10/23 05:55:54;;;;;;;8.80;5.27;;;;;;;9.16;100.00;100532.79;1435892;90;22287;-85
2023/10/23 05:58:21;;;;;;;7.93;5.30;;;;;;;9.20;100.00;100544.73;1450759;89;21488;-85
2023/10/23 06:00:47;;;;;;;18.33;10.37;;;;;;;9.24;100.00;100540.04;1450955;90;22279;-84
2023/10/23 06:03:13;;;;;;;19.50;14.07;;;;;;;9.29;100.00;100543.09;1451772;90;22375;-85
2023/10/23 06:05:41;;;;;;;10.83;6.43;;;;;;;9.34;100.00;100539.55;1447746;89;21259;-82
2023/10/23 06:08:09;;;;;;;8.33;5.43;;;;;;;9.39;100.00;100539.16;1444642;90;22404;-85
2023/10/23 06:10:45;;;;;;;8.30;5.33;;;;;;;9.43;100.00;100537.41;1458176;90;21391;-84
2023/10/23 06:13:11;;;;;;;5.87;4.13;;;;;;;9.47;100.00;100544.10;1449929;90;21510;-84
2023/10/23 06:15:38;;;;;;;7.30;5.43;;;;;;;9.57;100.00;100544.59;1448864;89;21414;-85
2023/10/23 06:18:07;;;;;;;12.27;4.93;;;;;;;9.65;100.00;100551.34;1457286;90;21501;-85
2023/10/23 06:20:34;;;;;;;7.43;5.43;;;;;;;9.75;100.00;100553.48;1455101;89;21407;-85
2023/10/23 06:23:00;;;;;;;8.40;5.50;;;;;;;9.88;100.00;100558.02;1451093;89;21565;-86
2023/10/23 06:25:27;;;;;;;12.57;6.17;;;;;;;10.01;100.00;100562.17;1439446;90;21638;-84
2023/10/23 06:27:53;;;;;;;6.73;5.17;;;;;;;10.10;100.00;100556.06;1455417;90;21583;-84
2023/10/23 06:30:23;;;;;;;11.03;4.47;;;;;;;10.22;100.00;100562.03;1452692;90;21399;-85
2023/10/23 06:32:49;;;;;;;9.90;4.90;;;;;;;10.32;100.00;100560.22;1446271;89;21413;-86
2023/10/23 06:35:16;;;;;;;7.33;5.40;;;;;;;10.47;100.00;100569.39;1460817;89;21434;-85
2023/10/23 06:37:42;;;;;;;7.50;4.90;;;;;;;10.66;100.00;100570.30;1445437;90;21558;-86
2023/10/23 06:40:09;;;;;;;12.00;5.93;;;;;;;10.80;100.00;100571.98;1455314;89;21274;-86
2023/10/23 06:42:36;;;;;;;8.83;7.07;;;;;;;11.01;100.00;100573.56;1452122;89;21399;-84
2023/10/23 06:45:03;;;;;;;11.47;6.67;;;;;;;11.16;100.00;100581.34;1461238;90;21422;-85
2023/10/23 06:47:29;;;;;;;10.83;6.73;;;;;;;11.32;100.00;100580.72;1447366;90;22330;-85
2023/10/23 06:49:55;;;;;;;7.77;5.90;;;;;;;11.47;100.00;100581.87;1457590;89;21421;-86
2023/10/23 06:52:22;;;;;;;10.30;5.13;;;;;;;11.65;100.00;100577.07;1456746;90;21318;-86
2023/10/23 06:54:48;;;;;;;11.27;5.70;;;;;;;11.79;100.00;100573.06;1451222;90;21334;-84
2023/10/23 06:57:14;;;;;;;7.77;4.77;;;;;;;11.96;100.00;100574.91;1444336;90;21414;-83
2023/10/23 06:59:40;;;;;;;7.30;5.33;;;;;;;12.11;100.00;100577.38;1451568;89;22256;-84
2023/10/23 07:02:06;;;;;;;10.30;4.93;;;;;;;12.29;100.00;100575.18;1451589;90;21422;-83
2023/10/23 07:04:32;;;;;;;10.33;4.63;;;;;;;12.48;100.00;100580.27;1453099;90;21581;-82
2023/10/23 07:06:58;;;;;;;9.53;4.23;;;;;;;12.76;100.00;100580.11;1459116;89;22368;-81
2023/10/23 07:09:24;;;;;;;7.53;3.97;;;;;;;13.06;100.00;100579.59;1455225;90;21583;-82
2023/10/23 07:11:51;;;;;;;10.30;4.33;;;;;;;13.33;100.00;100576.89;1451214;90;21347;-85
2023/10/23 07:14:18;;;;;;;8.63;3.93;;;;;;;13.49;100.00;100576.44;1451911;89;21621;-80
2023/10/23 07:16:45;;;;;;;7.77;4.67;;;;;;;13.60;100.00;100575.78;1451870;90;21458;-82
2023/10/23 07:19:12;;;;;;;8.17;5.27;;;;;;;13.69;100.00;100577.45;1452792;90;21377;-81
2023/10/23 07:21:38;;;;;;;16.27;4.93;;;;;;;13.75;100.00;100588.28;1451639;90;21362;-83
2023/10/23 07:24:05;;;;;;;11.13;5.97;;;;;;;13.75;100.00;100588.75;1452001;90;21540;-83
2023/10/23 07:26:31;;;;;;;9.60;4.67;;;;;;;13.74;100.00;100594.58;1453324;90;21576;-81
2023/10/23 07:28:57;;;;;;;17.27;5.50;;;;;;;13.72;100.00;100593.08;1457518;90;21583;-83
2023/10/23 07:31:24;;;;;;;12.77;5.93;;;;;;;13.73;100.00;100590.77;1449493;89;22220;-82
2023/10/23 07:33:50;;;;;;;9.47;5.00;;;;;;;13.80;100.00;100597.08;1451939;89;21755;-84
2023/10/23 07:36:18;;;;;;;16.17;6.83;;;;;;;13.90;100.00;100596.44;1453716;90;21436;-84
2023/10/23 07:38:45;;;;;;;8.13;5.93;;;;;;;13.99;100.00;100588.79;1455087;90;22352;-83
2023/10/23 07:41:13;;;;;;;13.03;5.73;;;;;;;14.07;100.00;100599.09;1446987;89;21834;-84
2023/10/23 07:43:39;;;;;;;10.60;5.70;;;;;;;14.13;100.00;100588.63;1455102;89;22360;-83
2023/10/23 07:46:08;;;;;;;12.37;4.20;;;;;;;14.20;100.00;100588.78;1467288;90;21369;-84
2023/10/23 07:48:35;;;;;;;6.43;4.80;;;;;;;14.28;100.00;100590.12;1459103;89;21539;-82
2023/10/23 07:51:07;;;;;;;5.60;4.40;;;;;;;14.35;100.00;100592.42;1451847;90;21825;-83
2023/10/23 07:53:39;;;;;;;6.97;4.80;;;;;;;14.45;100.00;100594.42;1453440;89;21521;-83
2023/10/23 07:56:05;;;;;;;9.53;4.50;;;;;;;14.57;100.00;100588.78;1460213;89;21576;-85
2023/10/23 07:58:32;;;;;;;9.27;4.10;;;;;;;14.68;100.00;100589.75;1456007;90;21443;-85
2023/10/23 08:01:06;;;;;;;6.13;4.60;;;;;;;14.78;100.00;100589.55;1451776;90;21491;-85
2023/10/23 08:03:34;;;;;;;12.00;5.07;;;;;;;14.82;100.00;100594.38;1451408;89;21524;-85
2023/10/23 08:06:03;;;;;;;7.07;4.43;;;;;;;14.84;100.00;100586.20;1453280;89;21362;-84
2023/10/23 08:08:35;;;;;;;6.77;4.67;;;;;;;14.84;100.00;100588.86;1455005;89;21550;-85
2023/10/23 08:11:07;;;;;;;8.57;5.03;;;;;;;14.84;100.00;100592.35;1457712;89;21399;-85
2023/10/23 08:13:34;;;;;;;6.10;4.03;;;;;;;14.89;100.00;100591.85;1446361;89;21506;-82
2023/10/23 08:16:01;;;;;;;6.83;4.40;;;;;;;14.91;100.00;100586.36;1456380;90;22404;-83
2023/10/23 08:18:27;;;;;;;5.43;4.20;;;;;;;14.96;100.00;100587.98;1455988;89;21532;-80
2023/10/23 08:20:53;;;;;;;7.90;4.80;;;;;;;15.01;100.00;100590.97;1450871;90;21369;-84
2023/10/23 08:23:19;;;;;;;8.23;4.70;;;;;;;15.08;100.00;100586.13;1442302;90;21532;-79
2023/10/23 08:25:45;;;;;;;10.70;4.80;;;;;;;15.18;100.00;100587.23;1444471;90;22294;-74
2023/10/23 08:28:12;;;;;;;7.40;5.03;;;;;;;15.18;100.00;100588.56;1445515;90;22894;-79
2023/10/23 08:30:38;;;;;;;14.80;5.47;;;;;;;15.17;100.00;100585.59;1432346;90;21451;-78
2023/10/23 08:33:05;;;;;;;10.80;5.37;;;;;;;15.23;100.00;100582.22;1451530;90;21546;-79
2023/10/23 08:35:32;;;;;;;10.00;5.37;;;;;;;15.30;100.00;100584.50;1440911;90;21384;-78
2023/10/23 08:37:58;;;;;;;7.20;5.03;;;;;;;15.40;100.00;100586.14;1443369;90;21443;-79
2023/10/23 08:40:24;;;;;;;5.90;3.77;;;;;;;15.53;100.00;100581.05;1453392;90;21492;-79
2023/10/23 08:42:51;;;;;;;9.63;3.83;;;;;;;15.62;100.00;100585.83;1454920;89;21414;-78
2023/10/23 08:45:18;;;;;;;7.07;4.63;;;;;;;15.63;100.00;100587.00;1448741;89;22411;-79
2023/10/23 08:47:45;;;;;;;5.57;4.27;;;;;;;15.67;100.00;100593.63;1456194;90;22381;-80
2023/10/23 08:50:11;;;;;;;6.17;4.27;;;;;;;15.79;100.00;100590.94;1454285;90;21539;-77
2023/10/23 08:52:46;;;;;;;6.93;4.57;;;;;;;16.01;100.00;100592.42;1453789;90;21546;-78
2023/10/23 08:55:14;;;;;;;5.20;4.37;;;;;;;16.23;100.00;100592.91;1451903;90;21363;-80
2023/10/23 08:57:53;;;;;;;9.07;4.33;;;;;;;16.33;100.00;100586.48;1452743;89;22017;-80
2023/10/23 09:00:22;;;;;;;6.25;3.83;;;;;;;16.55;100.00;100581.59;1448237;89;21473;-80
2023/10/23 09:02:50;;;;;;;8.10;3.80;;;;;;;16.79;100.00;100577.02;1451323;90;21620;-79
2023/10/23 09:05:17;;;;;;;10.88;3.92;;;;;;;17.32;100.00;100577.69;1442155;90;22499;-79
2023/10/23 09:07:45;;;;;;;9.73;4.53;;;;;;;17.86;100.00;100581.80;1378133;90;21186;-79
2023/10/23 09:10:12;;;;;;;5.47;3.20;;;;;;;18.33;100.00;100579.84;1378225;89;21252;-81
2023/10/23 09:12:39;;;;;;;5.10;3.65;;;;;;;18.77;100.00;100585.41;1379364;90;21245;-80
2023/10/23 09:15:24;;;;;;;7.15;3.33;;;;;;;19.11;100.00;100583.74;1384201;89;21296;-80
2023/10/23 09:17:51;;;;;;;4.28;2.72;;;;;;;19.61;100.00;100479.61;1471392;89;21288;-80
2023/10/23 09:20:26;;;;;;;5.75;2.80;;;;;;;20.29;100.00;100590.41;1371564;90;21222;-79
2023/10/23 09:26:59;;;;;;;11.68;3.00;;;;;;;21.11;100.00;100582.80;1450424;90;21560;-81
2023/10/23 09:29:28;;;;;;;5.40;2.98;;;;;;;21.35;100.00;100581.27;1445478;90;21444;-81
2023/10/23 09:32:00;;;;;;;7.37;2.45;;;;;;;21.48;100.00;100588.47;1449017;89;21391;-81
2023/10/23 09:34:26;;;;;;;6.08;3.10;;;;;;;21.98;100.00;100592.63;1535399;89;21245;-81
2023/10/23 09:36:54;;;;;;;4.95;2.65;;;;;;;22.39;100.00;100587.23;1525402;89;22036;-81
2023/10/23 09:39:23;;;;;;;9.13;3.58;;;;;;;22.42;100.00;100573.30;1535568;89;21275;-82
2023/10/23 09:41:50;;;;;;;4.67;2.87;;;;;;;22.60;100.00;100571.67;1375748;89;21385;-82
2023/10/23 09:44:17;;;;;;;3.42;2.58;;;;;;;23.01;100.00;100570.20;1377745;90;21363;-81
2023/10/23 09:46:46;;;;;;;8.48;3.67;;;;;;;23.35;100.00;100566.03;1378861;89;21178;-82
2023/10/23 09:49:12;;;;;;;9.20;3.27;;;;;;;23.52;100.00;100568.92;1527226;90;21462;-82
2023/10/23 09:51:40;;;;;;;4.53;3.02;;;;;;;23.51;100.00;100565.94;1379525;89;21230;-79
2023/10/23 09:54:19;;;;;;;14.93;5.05;;;;;;;23.35;98.66;100570.08;1378106;89;21245;-83
2023/10/23 09:56:53;;;;;;;6.08;3.40;;;;;;;23.38;100.00;100567.74;1535503;89;21252;-81
2023/10/23 10:06:26;;;;;;;10.48;6.37;;;;;;;23.82;92.46;100564.35;1380760;90;21374;-81
2023/10/23 10:08:55;;;;;;;9.03;5.60;;;;;;;23.82;91.83;100557.59;1383471;90;22323;-81
2023/10/23 10:11:22;;;;;;;10.38;5.15;;;;;;;23.87;60.48;100555.00;1535449;90;21216;-81
2023/10/23 10:13:48;;;;;;;5.87;4.53;;;;;;;23.84;60.25;100556.81;1378818;89;21200;-83
2023/10/23 10:16:15;;;;;;;8.85;4.78;;;;;;;24.16;59.58;100552.45;1520861;90;21326;-82
2023/10/23 10:18:42;;;;;;;7.60;4.40;;;;;;;24.35;58.68;100549.11;1382494;90;22361;-82
2023/10/23 10:21:11;;;;;;;8.88;5.00;;;;;;;24.62;57.76;100548.64;1357092;91;22310;-81
2023/10/23 10:23:38;;;;;;;12.00;5.10;;;;;;;24.57;53.20;100542.61;1377010;89;22176;-81
2023/10/23 10:30:05;;;;;;;5.12;3.95;;;;;;;24.53;50.11;100548.19;1535351;90;21267;-80
2023/10/23 10:32:35;;;;;;;14.43;4.15;;;;;;;24.09;51.28;100539.59;1376678;89;21252;-81
2023/10/23 10:35:03;;;;;;;8.05;4.65;;;;;;;24.14;49.45;100538.86;1375231;89;21319;-81
2023/10/23 10:37:31;;;;;;;11.90;4.83;;;;;;;23.87;49.11;100536.61;1383301;89;21422;-81
2023/10/23 10:40:06;;;;;;;6.55;3.85;;;;;;;23.86;49.21;100534.98;1377188;89;22169;-81
2023/10/23 10:47:12;;;;;;;7.72;4.97;;;;;;;24.02;49.55;100525.34;1469563;94;21311;-80
2023/10/23 10:49:38;;;;;;;8.80;5.05;;;;;;;24.24;49.51;100514.24;1350791;94;21646;-81
2023/10/23 10:52:30;;;;;;;9.20;4.10;;;;;;;24.50;46.66;100513.49;1388293;94;21408;-81
2023/10/23 10:54:58;;;;;;;6.80;4.42;;;;;;;24.48;47.76;100508.84;1393311;94;21674;-81
2023/10/23 10:57:26;;;;;;;8.10;4.67;;;;;;;24.47;48.00;100505.85;1386268;94;21502;-82
2023/10/23 11:00:01;;;;;;;8.90;5.30;;;;;;;24.52;47.93;100508.67;1392238;94;21489;-84
2023/10/23 11:02:27;;;;;;;7.53;5.10;;;;;;;24.68;47.42;100515.22;1393233;94;22515;-81
2023/10/23 11:04:54;;;;;;;9.00;4.80;;;;;;;24.81;46.56;100508.73;1389219;94;21445;-82
2023/10/23 11:07:25;;;;;;;7.85;3.40;;;;;;;24.91;46.60;100508.39;1391314;94;21540;-81
2023/10/23 11:09:52;;;;;;;8.43;2.75;;;;;;;25.03;46.31;100507.02;1397618;94;21717;-82
2023/10/23 11:12:19;;;;;;;5.50;2.20;;;;;;;25.00;45.82;100504.77;1392853;94;21598;-83
2023/10/23 11:14:48;;;;;;;7.45;3.72;;;;;;;24.70;44.06;100499.04;1392346;94;21510;-82
2023/10/23 11:17:16;;;;;;;5.90;2.85;;;;;;;24.56;44.26;100503.06;1383662;94;22076;-82
2023/10/23 11:19:43;;;;;;;27.07;3.62;;;;;;;24.33;44.65;100497.95;1374379;94;21622;-82
2023/10/23 11:22:14;;;;;;;7.55;2.83;;;;;;;24.38;44.73;100500.48;1405749;90;21614;-81
2023/10/23 11:24:41;;;;;;;7.72;3.70;;;;;;;24.20;44.50;100496.86;1451547;90;21517;-82
2023/10/23 11:27:07;;;;;;;8.55;3.27;;;;;;;24.18;44.70;100493.56;1437007;90;21443;-82
2023/10/23 11:33:36;;;;;;;4.35;2.87;;;;;;;24.31;44.45;100489.27;1415974;92;21726;-82
2023/10/23 11:36:06;;;;;;;5.28;3.00;;;;;;;24.33;44.47;100493.89;1467173;89;21340;-82
2023/10/23 11:38:36;;;;;;;10.70;3.25;;;;;;;24.47;44.66;100488.27;1448031;90;22338;-80
2023/10/23 11:41:12;;;;;;;7.47;3.75;;;;;;;24.58;44.64;100487.43;1447647;90;21354;-81
2023/10/23 11:43:47;;;;;;;8.83;3.42;;;;;;;24.69;44.41;100486.58;1449759;89;21430;-81